createdAt,value
2023-02-06T00:00:23.385Z,1.90
2023-02-06T00:02:26.130Z,1.80
2023-02-06T00:04:28.655Z,1.80
2023-02-06T00:06:31.246Z,1.80
2023-02-06T00:08:34.315Z,1.70
2023-02-06T00:10:36.799Z,1.70
2023-02-06T00:12:39.315Z,1.70
2023-02-06T00:14:41.827Z,1.70
2023-02-06T00:16:44.362Z,1.70
2023-02-06T00:18:48.226Z,1.70
2023-02-06T00:20:50.718Z,1.70
2023-02-06T00:22:53.232Z,2.20
2023-02-06T00:24:55.744Z,1.60
2023-02-06T00:26:58.259Z,1.60
2023-02-06T00:29:00.894Z,1.70
2023-02-06T00:31:05.308Z,1.80
2023-02-06T00:33:08.651Z,1.80
2023-02-06T00:35:11.237Z,1.80
2023-02-06T00:37:16.932Z,1.80
2023-02-06T00:39:19.648Z,1.80
2023-02-06T00:41:22.271Z,1.80
2023-02-06T00:43:26.641Z,1.80
2023-02-06T00:45:29.128Z,1.80
2023-02-06T00:47:31.660Z,1.80
2023-02-06T00:49:34.151Z,1.80
2023-02-06T00:51:38.399Z,1.80
2023-02-06T00:53:41.331Z,1.80
2023-02-06T00:55:44.182Z,1.80
2023-02-06T00:57:47.062Z,1.80
2023-02-06T00:59:50.323Z,1.70
2023-02-06T01:01:53.227Z,1.70
2023-02-06T01:03:56.503Z,1.70
2023-02-06T01:05:59.692Z,1.60
2023-02-06T01:08:04.458Z,1.60
2023-02-06T01:10:08.812Z,1.60
2023-02-06T01:12:11.394Z,1.60
2023-02-06T01:14:15.335Z,1.60
2023-02-06T01:16:20.710Z,1.50
2023-02-06T01:18:23.367Z,1.50
2023-02-06T01:20:25.939Z,1.40
2023-02-06T01:22:28.620Z,1.30
2023-02-06T01:24:31.177Z,1.30
2023-02-06T01:26:33.840Z,1.30
2023-02-06T01:28:36.883Z,1.20
2023-02-06T01:30:39.706Z,1.20
2023-02-06T01:32:42.631Z,1.20
2023-02-06T01:34:45.435Z,1.20
2023-02-06T01:36:48.013Z,1.20
2023-02-06T01:38:51.002Z,1.10
2023-02-06T01:40:56.679Z,1.10
2023-02-06T01:43:01.471Z,1.10
2023-02-06T01:45:35.822Z,1.10
2023-02-06T01:49:55.473Z,1.10
2023-02-06T01:51:59.873Z,1.00
2023-02-06T01:54:03.917Z,1.00
2023-02-06T01:56:07.346Z,1.00
2023-02-06T01:58:13.061Z,1.00
2023-02-06T02:00:16.121Z,0.90
2023-02-06T02:02:19.295Z,0.90
2023-02-06T02:04:24.140Z,0.90
2023-02-06T02:06:27.467Z,0.90
2023-02-06T02:08:33.128Z,0.90
2023-02-06T02:10:36.500Z,0.90
2023-02-06T02:12:39.136Z,0.90
2023-02-06T02:14:42.540Z,0.90
2023-02-06T02:16:49.617Z,0.90
2023-02-06T02:19:02.329Z,0.90
2023-02-06T02:21:30.077Z,0.80
2023-02-06T02:23:35.284Z,0.80
2023-02-06T02:25:59.864Z,0.80
2023-02-06T02:28:09.207Z,0.80
2023-02-06T02:30:33.853Z,0.70
2023-02-06T02:32:40.359Z,0.70
2023-02-06T02:34:51.382Z,0.70
2023-02-06T02:36:55.901Z,0.70
2023-02-06T02:39:01.694Z,0.70
2023-02-06T02:41:06.336Z,0.70
2023-02-06T02:43:11.588Z,0.70
2023-02-06T02:45:16.296Z,0.70
2023-02-06T02:47:20.687Z,0.60
2023-02-06T02:49:25.151Z,0.60
2023-02-06T02:51:28.356Z,0.60
2023-02-06T02:53:31.236Z,0.60
2023-02-06T02:55:33.971Z,0.60
2023-02-06T02:57:37.842Z,0.60
2023-02-06T02:59:42.803Z,0.60
2023-02-06T03:01:47.745Z,0.30
2023-02-06T03:03:52.136Z,0.50
2023-02-06T03:06:01.458Z,0.50
2023-02-06T03:08:07.828Z,0.50
2023-02-06T03:10:13.455Z,0.50
2023-02-06T03:12:19.616Z,0.50
2023-02-06T03:14:24.023Z,0.50
2023-02-06T03:16:29.046Z,0.50
2023-02-06T03:18:34.142Z,0.50
2023-02-06T03:20:38.217Z,0.60
2023-02-06T03:22:42.416Z,0.60
2023-02-06T03:24:46.884Z,-1.00
2023-02-06T03:26:51.267Z,0.60
2023-02-06T03:28:55.608Z,0.60
2023-02-06T03:30:59.662Z,0.60
2023-02-06T03:33:04.007Z,0.50
2023-02-06T03:35:08.194Z,0.30
2023-02-06T03:37:10.801Z,0.30
2023-02-06T03:39:13.346Z,0.30
2023-02-06T03:41:17.460Z,0.40
2023-02-06T03:43:22.053Z,0.40
2023-02-06T03:45:26.705Z,0.50
2023-02-06T03:47:29.828Z,0.50
2023-02-06T03:49:32.864Z,0.40
2023-02-06T03:51:37.593Z,0.50
2023-02-06T03:53:42.431Z,0.40
2023-02-06T03:55:46.062Z,0.40
2023-02-06T03:57:50.214Z,0.40
2023-02-06T03:59:52.805Z,0.40
2023-02-06T04:01:56.898Z,0.50
2023-02-06T04:03:59.470Z,0.50
2023-02-06T04:06:01.957Z,0.50
2023-02-06T04:08:04.800Z,0.60
2023-02-06T04:10:07.552Z,0.50
2023-02-06T04:12:10.439Z,0.40
2023-02-06T04:14:12.966Z,0.40
2023-02-06T04:16:15.709Z,0.50
2023-02-06T04:18:18.206Z,0.50
2023-02-06T04:20:20.880Z,0.50
2023-02-06T04:22:23.343Z,0.50
2023-02-06T04:24:26.034Z,0.50
2023-02-06T04:26:28.555Z,0.50
2023-02-06T04:28:31.179Z,0.40
2023-02-06T04:30:33.690Z,0.40
2023-02-06T04:32:36.209Z,0.30
2023-02-06T04:34:38.744Z,0.30
2023-02-06T04:36:41.242Z,0.30
2023-02-06T04:38:46.038Z,0.20
2023-02-06T04:40:48.520Z,0.20
2023-02-06T04:42:51.006Z,0.20
2023-02-06T04:44:53.606Z,0.20
2023-02-06T04:46:56.096Z,0.10
2023-02-06T04:48:58.598Z,0.00
2023-02-06T04:51:01.321Z,0.10
2023-02-06T04:53:03.789Z,0.10
2023-02-06T04:55:07.107Z,0.10
2023-02-06T04:57:09.691Z,0.20
2023-02-06T04:59:12.179Z,0.20
2023-02-06T05:01:16.062Z,0.20
2023-02-06T05:03:18.662Z,0.30
2023-02-06T05:05:21.175Z,0.20
2023-02-06T05:07:24.386Z,0.20
2023-02-06T05:09:27.099Z,0.10
2023-02-06T05:11:29.601Z,0.20
2023-02-06T05:13:33.380Z,0.10
2023-02-06T05:15:36.544Z,0.20
2023-02-06T05:17:39.287Z,0.10
2023-02-06T05:19:41.924Z,0.10
2023-02-06T05:21:44.957Z,0.10
2023-02-06T05:23:47.462Z,0.10
2023-02-06T05:25:51.472Z,0.10
2023-02-06T05:27:57.347Z,0.00
2023-02-06T05:30:01.103Z,-0.20
2023-02-06T05:32:04.460Z,0.00
2023-02-06T05:34:07.123Z,-0.10
2023-02-06T05:36:10.953Z,-0.10
2023-02-06T05:38:13.608Z,0.00
2023-02-06T05:40:17.535Z,0.00
2023-02-06T05:42:20.187Z,0.00
2023-02-06T05:44:24.043Z,0.00
2023-02-06T05:46:28.117Z,0.00
2023-02-06T05:48:33.869Z,0.10
2023-02-06T05:50:36.651Z,0.00
2023-02-06T05:52:41.613Z,0.10
2023-02-06T05:54:44.391Z,0.10
2023-02-06T05:56:47.063Z,0.20
2023-02-06T05:58:49.558Z,0.20
2023-02-06T06:00:52.350Z,0.30
2023-02-06T06:02:54.907Z,0.30
2023-02-06T06:04:57.449Z,0.20
2023-02-06T06:06:59.991Z,0.30
2023-02-06T06:09:02.504Z,0.30
2023-02-06T06:11:05.068Z,0.30
2023-02-06T06:13:08.156Z,0.30
2023-02-06T06:15:10.708Z,0.30
2023-02-06T06:17:14.146Z,0.30
2023-02-06T06:19:16.641Z,0.30
2023-02-06T06:21:19.138Z,0.30
2023-02-06T06:23:22.031Z,0.40
2023-02-06T06:25:24.528Z,0.40
2023-02-06T06:27:27.044Z,0.40
2023-02-06T06:29:29.721Z,0.40
2023-02-06T06:31:32.275Z,0.40
2023-02-06T06:33:34.990Z,0.40
2023-02-06T06:35:37.669Z,0.40
2023-02-06T06:37:40.566Z,0.50
2023-02-06T06:39:43.041Z,0.50
2023-02-06T06:41:45.539Z,0.50
2023-02-06T06:43:50.058Z,0.50
2023-02-06T06:45:52.526Z,0.60
2023-02-06T06:47:55.092Z,0.60
2023-02-06T06:49:58.782Z,0.70
2023-02-06T06:52:01.299Z,0.70
2023-02-06T06:54:03.837Z,0.80
2023-02-06T06:56:07.845Z,0.70
2023-02-06T06:58:10.471Z,0.70
2023-02-06T07:00:14.614Z,0.80
2023-02-06T07:02:17.454Z,0.80
2023-02-06T07:04:20.394Z,0.80
2023-02-06T07:06:22.894Z,0.80
2023-02-06T07:08:25.431Z,0.90
2023-02-06T07:10:27.920Z,0.90
2023-02-06T07:12:30.443Z,1.00
2023-02-06T07:14:32.955Z,0.90
2023-02-06T07:16:35.634Z,1.00
2023-02-06T07:18:39.367Z,1.00
2023-02-06T07:20:41.912Z,1.00
2023-02-06T07:22:44.413Z,0.90
2023-02-06T07:24:47.042Z,1.00
2023-02-06T07:26:49.538Z,1.10
2023-02-06T07:28:52.068Z,1.00
2023-02-06T07:30:54.609Z,1.00
2023-02-06T07:32:57.195Z,1.10
2023-02-06T07:34:59.701Z,1.30
2023-02-06T07:37:02.525Z,1.10
2023-02-06T07:39:05.041Z,1.10
2023-02-06T07:41:07.772Z,1.10
2023-02-06T07:43:10.236Z,1.10
2023-02-06T07:45:12.931Z,1.20
2023-02-06T07:47:15.440Z,1.20
2023-02-06T07:49:17.911Z,1.20
2023-02-06T07:51:20.444Z,1.20
2023-02-06T07:53:23.421Z,1.30
2023-02-06T07:55:26.323Z,1.30
2023-02-06T07:57:29.021Z,1.10
2023-02-06T07:59:31.818Z,1.30
2023-02-06T08:01:34.298Z,1.40
2023-02-06T08:03:36.876Z,1.40
2023-02-06T08:05:39.870Z,1.40
2023-02-06T08:07:42.342Z,1.40
2023-02-06T08:09:45.167Z,1.40
2023-02-06T08:11:47.646Z,1.50
2023-02-06T08:13:50.143Z,1.50
2023-02-06T08:15:52.642Z,1.50
2023-02-06T08:17:55.152Z,1.50
2023-02-06T08:19:57.688Z,1.50
2023-02-06T08:22:00.181Z,1.60
2023-02-06T08:24:02.695Z,1.60
2023-02-06T08:26:05.892Z,1.60
2023-02-06T08:28:09.628Z,1.60
2023-02-06T08:30:13.844Z,1.50
2023-02-06T08:32:16.420Z,1.60
2023-02-06T08:34:18.915Z,1.70
2023-02-06T08:36:22.535Z,1.70
2023-02-06T08:38:25.071Z,1.70
2023-02-06T08:40:27.675Z,1.70
2023-02-06T08:42:30.210Z,1.70
2023-02-06T08:44:33.115Z,1.70
2023-02-06T08:46:35.602Z,1.70
2023-02-06T08:48:38.127Z,1.60
2023-02-06T08:50:40.650Z,1.60
2023-02-06T08:52:43.163Z,1.70
2023-02-06T08:54:45.666Z,1.70
2023-02-06T08:56:48.368Z,1.70
2023-02-06T08:58:50.874Z,1.70
2023-02-06T09:00:53.531Z,1.70
2023-02-06T09:02:56.214Z,1.80
2023-02-06T09:04:58.847Z,1.80
2023-02-06T09:07:01.341Z,1.70
2023-02-06T09:09:04.341Z,1.70
2023-02-06T09:11:07.230Z,1.70
2023-02-06T09:13:09.710Z,1.80
2023-02-06T09:15:12.284Z,1.80
2023-02-06T09:17:14.748Z,1.90
2023-02-06T09:19:17.352Z,1.90
2023-02-06T09:21:22.301Z,2.00
2023-02-06T09:23:25.123Z,2.00
2023-02-06T09:25:27.662Z,2.00
2023-02-06T09:27:30.245Z,2.10
2023-02-06T09:29:32.810Z,2.00
2023-02-06T09:31:36.631Z,1.90
2023-02-06T09:33:39.743Z,2.00
2023-02-06T09:35:42.200Z,2.00
2023-02-06T09:37:44.695Z,2.00
2023-02-06T09:39:47.337Z,2.10
2023-02-06T09:41:51.440Z,2.10
2023-02-06T09:43:54.992Z,2.10
2023-02-06T09:45:59.288Z,2.10
2023-02-06T09:48:04.957Z,2.00
2023-02-06T09:50:09.441Z,2.00
2023-02-06T09:52:31.193Z,2.00
2023-02-06T09:54:36.847Z,2.20
2023-02-06T09:56:41.783Z,2.20
2023-02-06T09:58:47.113Z,2.20
2023-02-06T10:00:51.615Z,2.30
2023-02-06T10:02:58.652Z,2.30
2023-02-06T10:05:03.227Z,2.10
2023-02-06T10:07:10.042Z,2.20
2023-02-06T10:09:14.327Z,2.20
2023-02-06T10:11:18.724Z,2.30
2023-02-06T10:13:22.610Z,2.40
2023-02-06T10:15:27.256Z,2.40
2023-02-06T10:17:30.997Z,2.50
2023-02-06T10:19:37.641Z,2.50
2023-02-06T10:21:42.195Z,2.50
2023-02-06T10:23:47.699Z,2.50
2023-02-06T10:25:52.255Z,2.60
2023-02-06T10:27:56.937Z,2.70
2023-02-06T10:30:01.233Z,2.80
2023-02-06T10:32:23.080Z,2.90
2023-02-06T10:34:31.855Z,2.90
2023-02-06T10:36:44.663Z,2.80
2023-02-06T10:38:54.082Z,2.80
2023-02-06T10:40:58.839Z,2.90
2023-02-06T10:43:03.566Z,2.90
2023-02-06T10:45:20.090Z,3.00
2023-02-06T10:47:18.228Z,3.10
2023-02-06T10:49:24.277Z,3.20
2023-02-06T10:51:29.099Z,3.20
2023-02-06T10:53:33.402Z,3.30
2023-02-06T10:55:43.554Z,3.40
2023-02-06T10:57:50.195Z,3.40
2023-02-06T10:59:56.227Z,3.30
2023-02-06T11:02:06.636Z,3.40
2023-02-06T11:04:12.865Z,3.50
2023-02-06T11:06:36.887Z,3.60
2023-02-06T11:08:46.090Z,3.60
2023-02-06T11:10:48.561Z,3.60
2023-02-06T11:12:53.073Z,3.50
2023-02-06T11:14:57.392Z,3.60
2023-02-06T11:17:00.995Z,3.50
2023-02-06T11:19:07.772Z,3.60
2023-02-06T11:21:12.289Z,3.60
2023-02-06T11:23:16.672Z,3.60
2023-02-06T11:25:21.762Z,3.60
2023-02-06T11:27:24.249Z,3.70
2023-02-06T11:29:54.363Z,3.70
2023-02-06T11:31:59.266Z,3.60
2023-02-06T11:34:01.899Z,3.80
2023-02-06T11:36:18.864Z,3.70
2023-02-06T11:38:22.610Z,3.70
2023-02-06T11:40:27.161Z,3.80
2023-02-06T11:42:29.681Z,3.80
2023-02-06T11:44:36.415Z,3.90
2023-02-06T11:46:39.009Z,3.90
2023-02-06T11:48:42.426Z,3.90
2023-02-06T11:50:46.737Z,4.00
2023-02-06T11:52:51.750Z,4.00
2023-02-06T11:54:55.357Z,4.10
2023-02-06T11:56:59.348Z,4.00
2023-02-06T11:59:05.958Z,4.10
2023-02-06T12:01:09.647Z,4.10
2023-02-06T12:03:25.045Z,4.10
2023-02-06T12:05:29.382Z,4.20
2023-02-06T12:07:35.248Z,4.20
2023-02-06T12:09:38.977Z,4.30
2023-02-06T12:11:44.381Z,4.30
2023-02-06T12:13:48.788Z,4.40
2023-02-06T12:15:53.554Z,4.40
2023-02-06T12:17:57.816Z,4.40
2023-02-06T12:20:03.049Z,4.50
2023-02-06T12:22:07.589Z,4.40
2023-02-06T12:24:30.400Z,4.50
2023-02-06T12:26:34.672Z,4.60
2023-02-06T12:28:39.201Z,4.60
2023-02-06T12:30:43.922Z,4.70
2023-02-06T12:32:48.389Z,4.70
2023-02-06T12:34:53.224Z,4.80
2023-02-06T12:37:01.504Z,4.80
2023-02-06T12:39:05.708Z,4.80
2023-02-06T12:41:14.345Z,4.80
2023-02-06T12:43:17.422Z,4.80
2023-02-06T12:45:23.986Z,4.80
2023-02-06T12:47:28.597Z,4.80
2023-02-06T12:49:32.972Z,4.80
2023-02-06T12:51:37.431Z,4.90
2023-02-06T12:53:41.779Z,5.00
2023-02-06T12:55:45.873Z,5.00
2023-02-06T12:57:48.850Z,5.10
2023-02-06T13:00:02.144Z,5.10
2023-02-06T13:02:07.365Z,5.00
2023-02-06T13:04:12.872Z,5.00
2023-02-06T13:06:17.163Z,5.00
2023-02-06T13:08:20.919Z,5.10
2023-02-06T13:10:25.444Z,5.10
2023-02-06T13:12:29.020Z,5.20
2023-02-06T13:14:32.367Z,5.30
2023-02-06T13:16:39.885Z,5.40
2023-02-06T13:18:59.795Z,5.50
2023-02-06T13:21:15.933Z,5.50
2023-02-06T13:23:23.225Z,5.70
2023-02-06T13:25:47.964Z,5.70
2023-02-06T13:27:51.495Z,5.50
2023-02-06T13:29:53.957Z,5.60
2023-02-06T13:32:17.612Z,5.60
2023-02-06T13:34:20.111Z,5.60
2023-02-06T13:36:27.240Z,5.50
2023-02-06T13:38:31.523Z,5.50
2023-02-06T13:40:36.250Z,5.50
2023-02-06T13:42:41.222Z,5.50
2023-02-06T13:44:44.579Z,5.50
2023-02-06T13:47:12.438Z,5.40
2023-02-06T13:49:28.802Z,5.40
2023-02-06T13:51:40.485Z,5.30
2023-02-06T13:54:00.956Z,5.40
2023-02-06T13:56:25.348Z,5.30
2023-02-06T13:58:32.682Z,5.40
2023-02-06T14:00:36.986Z,5.40
2023-02-06T14:02:40.796Z,5.40
2023-02-06T14:04:45.089Z,5.40
2023-02-06T14:07:09.871Z,5.50
2023-02-06T14:09:16.491Z,5.50
2023-02-06T14:11:41.158Z,5.50
2023-02-06T14:13:54.171Z,5.50
2023-02-06T14:15:58.730Z,5.50
2023-02-06T14:18:06.627Z,5.40
2023-02-06T14:20:12.055Z,5.50
2023-02-06T14:22:19.005Z,5.50
2023-02-06T14:24:46.764Z,5.50
2023-02-06T14:26:51.683Z,5.60
2023-02-06T14:28:57.618Z,5.60
2023-02-06T14:31:03.208Z,5.70
2023-02-06T14:33:09.991Z,5.70
2023-02-06T14:35:16.435Z,5.70
2023-02-06T14:37:28.234Z,5.70
2023-02-06T14:39:44.301Z,5.70
2023-02-06T14:41:46.811Z,5.70
2023-02-06T14:43:50.336Z,5.70
2023-02-06T14:46:06.403Z,5.70
2023-02-06T14:48:00.785Z,5.70
2023-02-06T14:50:03.622Z,5.70
2023-02-06T14:52:06.343Z,5.70
2023-02-06T14:54:13.368Z,5.60
2023-02-06T14:56:18.330Z,5.70
2023-02-06T14:58:23.237Z,5.70
2023-02-06T15:00:26.392Z,5.70
2023-02-06T15:02:30.411Z,5.70
2023-02-06T15:04:32.901Z,5.60
2023-02-06T15:06:37.783Z,5.70
2023-02-06T15:08:42.160Z,5.60
2023-02-06T15:10:45.408Z,5.70
2023-02-06T15:12:51.701Z,5.70
2023-02-06T15:14:55.007Z,5.60
2023-02-06T15:16:59.539Z,5.60
2023-02-06T15:19:13.070Z,5.60
2023-02-06T15:21:16.596Z,5.50
2023-02-06T15:23:20.948Z,5.50
2023-02-06T15:25:27.907Z,5.50
2023-02-06T15:27:31.874Z,5.50
2023-02-06T15:29:35.394Z,5.40
2023-02-06T15:31:37.973Z,5.40
2023-02-06T15:33:41.048Z,5.40
2023-02-06T15:35:45.477Z,5.30
2023-02-06T15:37:48.017Z,5.30
2023-02-06T15:39:51.758Z,5.30
2023-02-06T15:41:54.580Z,5.20
2023-02-06T15:43:58.967Z,5.20
2023-02-06T15:46:02.355Z,5.10
2023-02-06T15:48:09.908Z,5.00
2023-02-06T15:50:16.378Z,5.00
2023-02-06T15:52:32.438Z,5.00
2023-02-06T15:54:35.047Z,4.90
2023-02-06T15:56:39.488Z,4.90
2023-02-06T15:58:42.894Z,4.80
2023-02-06T16:00:47.224Z,4.80
2023-02-06T16:02:50.439Z,4.70
2023-02-06T16:04:55.116Z,4.70
2023-02-06T16:07:03.137Z,4.70
2023-02-06T16:09:07.768Z,4.60
2023-02-06T16:11:30.448Z,4.60
2023-02-06T16:13:33.005Z,4.60
2023-02-06T16:15:37.307Z,4.60
2023-02-06T16:17:41.776Z,4.60
2023-02-06T16:19:48.404Z,4.60
2023-02-06T16:22:03.928Z,4.60
2023-02-06T16:24:13.923Z,4.70
2023-02-06T16:26:17.362Z,4.70
2023-02-06T16:28:22.336Z,4.60
2023-02-06T16:30:27.724Z,4.60
2023-02-06T16:32:31.251Z,4.60
2023-02-06T16:34:38.641Z,4.60
2023-02-06T16:36:41.890Z,4.70
2023-02-06T16:38:54.022Z,4.70
2023-02-06T16:40:50.428Z,4.60
2023-02-06T16:42:52.952Z,4.60
2023-02-06T16:44:57.261Z,4.50
2023-02-06T16:47:19.999Z,4.40
2023-02-06T16:49:49.687Z,4.20
2023-02-06T16:51:54.192Z,4.20
2023-02-06T16:53:57.589Z,4.10
2023-02-06T16:56:00.334Z,4.10
2023-02-06T16:58:03.053Z,4.10
2023-02-06T17:00:09.304Z,4.00
2023-02-06T17:02:13.466Z,4.00
2023-02-06T17:04:16.144Z,3.90
2023-02-06T17:06:19.785Z,3.90
2023-02-06T17:08:23.689Z,3.90
2023-02-06T17:10:26.634Z,3.90
2023-02-06T17:12:29.456Z,3.80
2023-02-06T17:14:32.017Z,3.80
2023-02-06T17:16:35.815Z,3.80
2023-02-06T17:18:38.361Z,3.80
2023-02-06T17:20:41.781Z,3.80
2023-02-06T17:22:44.413Z,3.80
2023-02-06T17:24:47.355Z,3.70
2023-02-06T17:26:49.993Z,3.60
2023-02-06T17:28:52.559Z,3.60
2023-02-06T17:30:55.232Z,3.50
2023-02-06T17:32:58.358Z,3.30
2023-02-06T17:35:01.910Z,3.20
2023-02-06T17:37:06.504Z,3.20
2023-02-06T17:39:11.037Z,3.10
2023-02-06T17:41:13.561Z,3.10
2023-02-06T17:43:16.192Z,3.20
2023-02-06T17:45:18.677Z,3.20
2023-02-06T17:47:21.166Z,3.10
2023-02-06T17:49:23.704Z,3.10
2023-02-06T17:51:26.230Z,3.10
2023-02-06T17:53:28.745Z,3.10
2023-02-06T17:55:31.943Z,3.10
2023-02-06T17:57:34.751Z,3.00
2023-02-06T17:59:37.291Z,3.10
2023-02-06T18:01:41.345Z,2.80
2023-02-06T18:03:45.019Z,2.80
2023-02-06T18:05:55.963Z,2.80
2023-02-06T18:07:58.496Z,2.90
2023-02-06T18:10:00.967Z,2.90
2023-02-06T18:12:03.704Z,2.90
2023-02-06T18:14:06.675Z,2.90
2023-02-06T18:16:12.803Z,2.80
2023-02-06T18:18:15.360Z,2.70
2023-02-06T18:20:18.631Z,2.60
2023-02-06T18:22:21.509Z,2.60
2023-02-06T18:24:24.042Z,2.50
2023-02-06T18:26:26.720Z,2.50
2023-02-06T18:28:29.351Z,2.40
2023-02-06T18:30:32.379Z,2.40
2023-02-06T18:32:36.724Z,2.40
2023-02-06T18:34:41.378Z,2.40
2023-02-06T18:36:44.617Z,2.40
2023-02-06T18:38:47.111Z,2.40
2023-02-06T18:40:49.656Z,2.30
2023-02-06T18:42:53.421Z,2.30
2023-02-06T18:44:56.424Z,2.20
2023-02-06T18:46:59.046Z,2.10
2023-02-06T18:49:01.559Z,2.10
2023-02-06T18:51:07.009Z,2.10
2023-02-06T18:53:09.527Z,2.00
2023-02-06T18:55:13.603Z,2.00
2023-02-06T18:57:16.261Z,2.00
2023-02-06T18:59:18.950Z,2.00
2023-02-06T19:01:23.252Z,1.90
2023-02-06T19:03:25.860Z,1.80
2023-02-06T19:05:31.206Z,1.80
2023-02-06T19:07:34.663Z,1.80
2023-02-06T19:09:40.466Z,1.70
2023-02-06T19:11:47.971Z,1.50
2023-02-06T19:13:52.501Z,1.40
2023-02-06T19:16:05.672Z,1.40
2023-02-06T19:18:12.100Z,1.50
2023-02-06T19:20:15.298Z,1.50
2023-02-06T19:22:25.021Z,1.40
2023-02-06T19:24:29.908Z,1.50
2023-02-06T19:26:34.438Z,1.40
2023-02-06T19:28:49.533Z,1.40
2023-02-06T19:30:52.381Z,0.90
2023-02-06T19:32:57.901Z,1.40
2023-02-06T19:35:00.513Z,1.30
2023-02-06T19:37:03.603Z,1.30
2023-02-06T19:39:08.830Z,1.30
2023-02-06T19:41:14.797Z,1.30
2023-02-06T19:43:17.386Z,1.40
2023-02-06T19:45:20.162Z,1.50
2023-02-06T19:47:22.795Z,1.50
2023-02-06T19:49:25.921Z,1.50
2023-02-06T19:51:29.455Z,1.40
2023-02-06T19:53:33.714Z,1.40
2023-02-06T19:55:36.723Z,1.40
2023-02-06T19:57:44.194Z,1.40
2023-02-06T19:59:48.023Z,1.50
2023-02-06T20:01:52.059Z,1.50
2023-02-06T20:03:55.463Z,1.50
2023-02-06T20:06:00.916Z,1.50
2023-02-06T20:08:03.677Z,1.50
2023-02-06T20:10:07.143Z,1.50
2023-02-06T20:12:10.811Z,1.50
2023-02-06T20:14:13.387Z,1.50
2023-02-06T20:16:16.353Z,1.40
2023-02-06T20:18:19.899Z,1.30
2023-02-06T20:20:22.602Z,1.30
2023-02-06T20:22:25.159Z,1.30
2023-02-06T20:24:29.044Z,1.30
2023-02-06T20:26:32.889Z,1.40
2023-02-06T20:28:35.449Z,1.40
2023-02-06T20:30:38.252Z,1.30
2023-02-06T20:32:41.160Z,1.30
2023-02-06T20:34:46.211Z,1.30
2023-02-06T20:36:49.244Z,1.30
2023-02-06T20:38:52.692Z,1.30
2023-02-06T20:40:55.575Z,1.30
2023-02-06T20:42:58.179Z,1.40
2023-02-06T20:45:00.708Z,1.40
2023-02-06T20:47:03.283Z,1.40
2023-02-06T20:49:08.695Z,1.40
2023-02-06T20:51:13.015Z,1.40
2023-02-06T20:53:16.172Z,1.40
2023-02-06T20:55:18.919Z,1.40
2023-02-06T20:57:22.673Z,1.30
2023-02-06T20:59:25.773Z,1.30
2023-02-06T21:01:30.555Z,1.30
2023-02-06T21:03:33.295Z,1.30
2023-02-06T21:05:35.869Z,1.30
2023-02-06T21:07:40.005Z,1.20
2023-02-06T21:09:42.543Z,1.20
2023-02-06T21:11:45.680Z,1.10
2023-02-06T21:13:48.258Z,1.00
2023-02-06T21:15:52.603Z,0.90
2023-02-06T21:17:55.280Z,0.90
2023-02-06T21:19:57.854Z,0.90
2023-02-06T21:22:00.571Z,0.80
2023-02-06T21:24:03.494Z,0.80
2023-02-06T21:26:17.500Z,0.80
2023-02-06T21:28:20.153Z,0.80
2023-02-06T21:30:22.741Z,0.80
2023-02-06T21:32:25.517Z,0.70
2023-02-06T21:34:28.034Z,0.70
2023-02-06T21:36:31.264Z,0.70
2023-02-06T21:38:34.432Z,0.70
2023-02-06T21:40:38.091Z,0.60
2023-02-06T21:42:40.635Z,0.70
2023-02-06T21:44:43.154Z,0.60
2023-02-06T21:46:47.008Z,0.60
2023-02-06T21:48:52.251Z,0.60
2023-02-06T21:50:54.793Z,0.50
2023-02-06T21:52:57.290Z,0.50
2023-02-06T21:55:00.072Z,0.50
2023-02-06T21:57:02.699Z,0.40
2023-02-06T21:59:05.636Z,0.40
2023-02-06T22:01:10.141Z,0.40
2023-02-06T22:03:13.419Z,0.30
2023-02-06T22:05:16.215Z,0.30
2023-02-06T22:07:19.131Z,0.30
2023-02-06T22:09:22.501Z,0.30
2023-02-06T22:11:26.235Z,0.40
2023-02-06T22:13:28.750Z,0.50
2023-02-06T22:15:31.647Z,0.50
2023-02-06T22:17:35.044Z,0.50
2023-02-06T22:19:37.620Z,0.60
2023-02-06T22:21:40.899Z,0.50
2023-02-06T22:23:44.279Z,0.50
2023-02-06T22:25:47.715Z,0.40
2023-02-06T22:27:53.181Z,0.40
2023-02-06T22:30:01.356Z,0.40
2023-02-06T22:32:07.899Z,0.40
2023-02-06T22:34:15.637Z,0.30
2023-02-06T22:36:23.930Z,0.20
2023-02-06T22:38:29.761Z,0.20
2023-02-06T22:40:46.554Z,0.10
2023-02-06T22:42:52.983Z,0.00
2023-02-06T22:44:55.866Z,0.00
2023-02-06T22:46:58.704Z,0.00
2023-02-06T22:49:01.233Z,-0.10
2023-02-06T22:51:07.089Z,0.00
2023-02-06T22:53:28.922Z,0.00
2023-02-06T22:55:33.982Z,-0.10
2023-02-06T22:57:36.706Z,-0.10
2023-02-06T22:59:39.301Z,-0.10
2023-02-06T23:01:42.691Z,-0.10
2023-02-06T23:03:46.130Z,-0.20
2023-02-06T23:05:48.764Z,-0.20
2023-02-06T23:07:51.319Z,-0.20
2023-02-06T23:09:54.546Z,-0.20
2023-02-06T23:11:58.262Z,-0.20
2023-02-06T23:14:01.808Z,-0.10
2023-02-06T23:16:04.896Z,-0.10
2023-02-06T23:18:07.488Z,-0.10
2023-02-06T23:20:11.364Z,-0.10
2023-02-06T23:22:13.958Z,-0.10
2023-02-06T23:24:16.948Z,-0.20
2023-02-06T23:26:20.059Z,-0.20
2023-02-06T23:28:22.817Z,-0.20
2023-02-06T23:30:25.393Z,-0.20
2023-02-06T23:32:27.964Z,-0.20
2023-02-06T23:34:30.484Z,-0.20
2023-02-06T23:36:33.017Z,-0.30
2023-02-06T23:38:35.769Z,-0.30
2023-02-06T23:40:38.554Z,-0.40
2023-02-06T23:42:41.084Z,-0.40
2023-02-06T23:44:44.852Z,-0.40
2023-02-06T23:46:47.613Z,-0.20
2023-02-06T23:48:50.432Z,-0.20
2023-02-06T23:50:52.911Z,-0.20
2023-02-06T23:52:55.536Z,-0.20
2023-02-06T23:54:58.160Z,-0.20
2023-02-06T23:57:00.624Z,-0.20
2023-02-06T23:59:04.371Z,-0.20
